sensor_id;sensor_type;location;lat;lon;timestamp;P1;durP1;ratioP1;P2;durP2;ratioP2
75209;SDS011;63796;53.136;14.882;2022-12-13T18:04:39;8.45;;;4.00;;
75209;SDS011;63796;53.136;14.882;2022-12-13T18:07:20;52.23;;;18.62;;
75209;SDS011;63796;53.136;14.882;2022-12-13T18:09:46;66.40;;;24.57;;
75209;SDS011;63796;53.136;14.882;2022-12-13T18:12:13;55.87;;;22.23;;
75209;SDS011;63796;53.136;14.882;2022-12-13T18:14:40;25.10;;;11.33;;
75209;SDS011;63796;53.136;14.882;2022-12-13T18:17:11;26.95;;;11.73;;
75209;SDS011;63796;53.136;14.882;2022-12-13T18:19:41;25.50;;;10.88;;
75209;SDS011;63796;53.136;14.882;2022-12-13T18:22:11;14.20;;;5.10;;
75209;SDS011;63796;53.136;14.882;2022-12-13T18:24:49;10.67;;;4.43;;
75209;SDS011;63796;53.136;14.882;2022-12-13T18:27:17;13.85;;;4.90;;
75209;SDS011;63796;53.136;14.882;2022-12-13T18:29:44;11.28;;;4.83;;
75209;SDS011;63796;53.136;14.882;2022-12-13T18:32:10;13.85;;;5.80;;
75209;SDS011;63796;53.136;14.882;2022-12-13T18:34:38;12.45;;;5.10;;
75209;SDS011;63796;53.136;14.882;2022-12-13T18:37:05;10.37;;;4.73;;
75209;SDS011;63796;53.136;14.882;2022-12-13T18:39:34;13.18;;;5.67;;
75209;SDS011;63796;53.136;14.882;2022-12-13T18:42:03;12.95;;;4.50;;
75209;SDS011;63796;53.136;14.882;2022-12-13T18:44:32;20.43;;;6.25;;
75209;SDS011;63796;53.136;14.882;2022-12-13T18:46:58;12.93;;;5.20;;
75209;SDS011;63796;53.136;14.882;2022-12-13T18:49:25;10.97;;;4.77;;
75209;SDS011;63796;53.136;14.882;2022-12-13T18:51:53;13.40;;;4.83;;
75209;SDS011;63796;53.136;14.882;2022-12-13T18:54:20;10.32;;;3.77;;
75209;SDS011;63796;53.136;14.882;2022-12-13T18:56:47;10.30;;;4.17;;
75209;SDS011;63796;53.136;14.882;2022-12-13T18:59:15;11.30;;;4.60;;
75209;SDS011;63796;53.136;14.882;2022-12-13T19:01:42;19.70;;;6.67;;
75209;SDS011;63796;53.136;14.882;2022-12-13T19:04:09;22.52;;;8.93;;
75209;SDS011;63796;53.136;14.882;2022-12-13T19:06:36;40.35;;;15.75;;
75209;SDS011;63796;53.136;14.882;2022-12-13T19:09:03;72.65;;;29.52;;
75209;SDS011;63796;53.136;14.882;2022-12-13T19:11:30;51.35;;;23.10;;
75209;SDS011;63796;53.136;14.882;2022-12-13T19:13:56;38.53;;;16.10;;
75209;SDS011;63796;53.136;14.882;2022-12-13T19:16:24;75.47;;;30.40;;
75209;SDS011;63796;53.136;14.882;2022-12-13T19:18:51;98.07;;;34.92;;
75209;SDS011;63796;53.136;14.882;2022-12-13T19:21:19;58.85;;;25.72;;
75209;SDS011;63796;53.136;14.882;2022-12-13T19:23:47;65.72;;;28.47;;
75209;SDS011;63796;53.136;14.882;2022-12-13T19:26:14;67.60;;;27.87;;
75209;SDS011;63796;53.136;14.882;2022-12-13T19:28:42;42.70;;;16.23;;
75209;SDS011;63796;53.136;14.882;2022-12-13T19:31:12;27.42;;;9.45;;
75209;SDS011;63796;53.136;14.882;2022-12-13T19:33:40;21.05;;;7.25;;
75209;SDS011;63796;53.136;14.882;2022-12-13T19:36:08;14.73;;;6.28;;
75209;SDS011;63796;53.136;14.882;2022-12-13T19:38:36;14.60;;;5.00;;
75209;SDS011;63796;53.136;14.882;2022-12-13T19:41:11;11.10;;;4.42;;
75209;SDS011;63796;53.136;14.882;2022-12-13T19:43:42;13.25;;;5.28;;
75209;SDS011;63796;53.136;14.882;2022-12-13T19:46:09;11.15;;;5.20;;
75209;SDS011;63796;53.136;14.882;2022-12-13T19:48:36;11.83;;;4.75;;
75209;SDS011;63796;53.136;14.882;2022-12-13T19:51:07;13.80;;;5.10;;
75209;SDS011;63796;53.136;14.882;2022-12-13T19:53:35;14.33;;;6.42;;
75209;SDS011;63796;53.136;14.882;2022-12-13T19:56:08;13.10;;;5.47;;
75209;SDS011;63796;53.136;14.882;2022-12-13T19:58:44;13.88;;;5.15;;
75209;SDS011;63796;53.136;14.882;2022-12-13T20:01:12;13.60;;;4.92;;
75209;SDS011;63796;53.136;14.882;2022-12-13T20:03:43;13.40;;;5.37;;
75209;SDS011;63796;53.136;14.882;2022-12-13T20:06:21;12.03;;;4.83;;
75209;SDS011;63796;53.136;14.882;2022-12-13T20:08:49;10.35;;;4.53;;
75209;SDS011;63796;53.136;14.882;2022-12-13T20:11:20;10.13;;;4.75;;
75209;SDS011;63796;53.136;14.882;2022-12-13T20:13:49;10.90;;;4.65;;
75209;SDS011;63796;53.136;14.882;2022-12-13T20:16:20;11.63;;;4.23;;
75209;SDS011;63796;53.136;14.882;2022-12-13T20:18:57;13.40;;;5.00;;
75209;SDS011;63796;53.136;14.882;2022-12-13T20:21:26;10.55;;;4.83;;
75209;SDS011;63796;53.136;14.882;2022-12-13T20:23:54;14.83;;;5.70;;
75209;SDS011;63796;53.136;14.882;2022-12-13T20:26:23;12.55;;;5.22;;
75209;SDS011;63796;53.136;14.882;2022-12-13T20:28:52;12.87;;;4.90;;
75209;SDS011;63796;53.136;14.882;2022-12-13T20:31:22;13.20;;;4.92;;
75209;SDS011;63796;53.136;14.882;2022-12-13T20:33:56;13.43;;;5.37;;
75209;SDS011;63796;53.136;14.882;2022-12-13T20:36:29;13.78;;;5.17;;
75209;SDS011;63796;53.136;14.882;2022-12-13T20:38:57;15.10;;;5.08;;
75209;SDS011;63796;53.136;14.882;2022-12-13T20:41:27;17.23;;;7.20;;
75209;SDS011;63796;53.136;14.882;2022-12-13T20:43:58;17.77;;;6.97;;
75209;SDS011;63796;53.136;14.882;2022-12-13T20:46:28;17.52;;;7.10;;
75209;SDS011;63796;53.136;14.882;2022-12-13T20:48:56;19.42;;;6.90;;
75209;SDS011;63796;53.136;14.882;2022-12-13T20:51:26;18.57;;;7.20;;
75209;SDS011;63796;53.136;14.882;2022-12-13T20:53:59;18.00;;;6.97;;
75209;SDS011;63796;53.136;14.882;2022-12-13T20:56:31;16.62;;;7.08;;
75209;SDS011;63796;53.136;14.882;2022-12-13T20:59:05;19.12;;;7.08;;
75209;SDS011;63796;53.136;14.882;2022-12-13T21:01:37;18.70;;;7.12;;
75209;SDS011;63796;53.136;14.882;2022-12-13T21:04:06;15.88;;;6.58;;
75209;SDS011;63796;53.136;14.882;2022-12-13T21:06:38;15.57;;;7.07;;
75209;SDS011;63796;53.136;14.882;2022-12-13T21:09:12;18.98;;;6.87;;
75209;SDS011;63796;53.136;14.882;2022-12-13T21:11:40;20.05;;;7.50;;
75209;SDS011;63796;53.136;14.882;2022-12-13T21:14:17;17.42;;;6.97;;
75209;SDS011;63796;53.136;14.882;2022-12-13T21:16:54;20.30;;;7.75;;
75209;SDS011;63796;53.136;14.882;2022-12-13T21:19:24;19.53;;;7.43;;
75209;SDS011;63796;53.136;14.882;2022-12-13T21:21:56;19.00;;;7.22;;
75209;SDS011;63796;53.136;14.882;2022-12-13T21:24:23;20.20;;;7.72;;
75209;SDS011;63796;53.136;14.882;2022-12-13T21:26:55;15.88;;;7.30;;
75209;SDS011;63796;53.136;14.882;2022-12-13T21:29:22;17.77;;;7.40;;
75209;SDS011;63796;53.136;14.882;2022-12-13T21:31:49;19.40;;;7.50;;
75209;SDS011;63796;53.136;14.882;2022-12-13T21:34:18;23.10;;;7.78;;
75209;SDS011;63796;53.136;14.882;2022-12-13T21:36:47;19.45;;;7.20;;
75209;SDS011;63796;53.136;14.882;2022-12-13T21:39:22;18.50;;;6.80;;
75209;SDS011;63796;53.136;14.882;2022-12-13T21:41:55;18.52;;;7.72;;
75209;SDS011;63796;53.136;14.882;2022-12-13T21:44:23;23.13;;;7.67;;
75209;SDS011;63796;53.136;14.882;2022-12-13T21:46:50;21.62;;;7.83;;
75209;SDS011;63796;53.136;14.882;2022-12-13T21:49:17;21.93;;;8.63;;
75209;SDS011;63796;53.136;14.882;2022-12-13T21:51:44;19.90;;;7.10;;
75209;SDS011;63796;53.136;14.882;2022-12-13T21:54:11;20.05;;;7.10;;
75209;SDS011;63796;53.136;14.882;2022-12-13T21:56:38;19.87;;;7.20;;
75209;SDS011;63796;53.136;14.882;2022-12-13T21:59:24;22.35;;;7.15;;
75209;SDS011;63796;53.136;14.882;2022-12-13T22:04:49;21.33;;;7.75;;
75209;SDS011;63796;53.136;14.882;2022-12-13T22:07:39;16.97;;;7.60;;
75209;SDS011;63796;53.136;14.882;2022-12-13T22:09:59;18.00;;;7.20;;
75209;SDS011;63796;53.136;14.882;2022-12-13T22:12:37;21.40;;;7.12;;
75209;SDS011;63796;53.136;14.882;2022-12-13T22:15:07;17.55;;;6.85;;
75209;SDS011;63796;53.136;14.882;2022-12-13T22:17:38;17.67;;;5.85;;
75209;SDS011;63796;53.136;14.882;2022-12-13T22:20:07;17.90;;;6.05;;
75209;SDS011;63796;53.136;14.882;2022-12-13T22:22:39;17.97;;;6.90;;
75209;SDS011;63796;53.136;14.882;2022-12-13T22:25:09;15.20;;;6.80;;
75209;SDS011;63796;53.136;14.882;2022-12-13T22:27:36;18.32;;;7.35;;
75209;SDS011;63796;53.136;14.882;2022-12-13T22:30:03;17.15;;;6.95;;
75209;SDS011;63796;53.136;14.882;2022-12-13T22:32:31;22.00;;;7.55;;
75209;SDS011;63796;53.136;14.882;2022-12-13T22:34:58;23.20;;;7.97;;
75209;SDS011;63796;53.136;14.882;2022-12-13T22:37:25;21.73;;;7.60;;
75209;SDS011;63796;53.136;14.882;2022-12-13T22:39:55;19.20;;;7.83;;
75209;SDS011;63796;53.136;14.882;2022-12-13T22:42:22;22.20;;;8.05;;
75209;SDS011;63796;53.136;14.882;2022-12-13T22:44:49;19.95;;;7.40;;
75209;SDS011;63796;53.136;14.882;2022-12-13T22:47:17;20.53;;;8.07;;
75209;SDS011;63796;53.136;14.882;2022-12-13T22:49:43;20.15;;;7.80;;
75209;SDS011;63796;53.136;14.882;2022-12-13T22:52:11;21.65;;;7.83;;
75209;SDS011;63796;53.136;14.882;2022-12-13T22:54:40;19.57;;;7.40;;
75209;SDS011;63796;53.136;14.882;2022-12-13T22:57:09;20.17;;;7.05;;
75209;SDS011;63796;53.136;14.882;2022-12-13T22:59:36;20.00;;;7.70;;
75209;SDS011;63796;53.136;14.882;2022-12-13T23:02:04;19.98;;;6.80;;
75209;SDS011;63796;53.136;14.882;2022-12-13T23:04:31;21.73;;;7.25;;
75209;SDS011;63796;53.136;14.882;2022-12-13T23:07:02;17.48;;;7.95;;
75209;SDS011;63796;53.136;14.882;2022-12-13T23:09:39;21.45;;;6.40;;
75209;SDS011;63796;53.136;14.882;2022-12-13T23:12:17;14.53;;;7.23;;
75209;SDS011;63796;53.136;14.882;2022-12-13T23:15:07;17.37;;;7.28;;
75209;SDS011;63796;53.136;14.882;2022-12-13T23:17:38;21.05;;;7.65;;
75209;SDS011;63796;53.136;14.882;2022-12-13T23:20:05;26.85;;;7.70;;
75209;SDS011;63796;53.136;14.882;2022-12-13T23:22:33;19.27;;;7.55;;
75209;SDS011;63796;53.136;14.882;2022-12-13T23:25:00;27.00;;;10.13;;
75209;SDS011;63796;53.136;14.882;2022-12-13T23:27:27;26.00;;;10.63;;
75209;SDS011;63796;53.136;14.882;2022-12-13T23:29:56;29.90;;;9.33;;
75209;SDS011;63796;53.136;14.882;2022-12-13T23:32:23;23.25;;;9.00;;
75209;SDS011;63796;53.136;14.882;2022-12-13T23:34:49;22.30;;;8.38;;
75209;SDS011;63796;53.136;14.882;2022-12-13T23:37:17;29.07;;;10.07;;
75209;SDS011;63796;53.136;14.882;2022-12-13T23:39:48;25.43;;;10.32;;
75209;SDS011;63796;53.136;14.882;2022-12-13T23:42:15;17.92;;;7.55;;
75209;SDS011;63796;53.136;14.882;2022-12-13T23:44:42;22.13;;;8.50;;
75209;SDS011;63796;53.136;14.882;2022-12-13T23:47:09;21.37;;;7.83;;
75209;SDS011;63796;53.136;14.882;2022-12-13T23:49:35;22.93;;;8.67;;
75209;SDS011;63796;53.136;14.882;2022-12-13T23:52:02;20.25;;;8.43;;
75209;SDS011;63796;53.136;14.882;2022-12-13T23:54:29;24.40;;;9.73;;
75209;SDS011;63796;53.136;14.882;2022-12-13T23:56:56;24.27;;;8.88;;
75209;SDS011;63796;53.136;14.882;2022-12-13T23:59:26;20.17;;;9.03;;
